sensor_id;sensor_type;location;lat;lon;timestamp;temperature;humidity
46730;DHT22;32476;50.002;11.854;2022-09-25T00:01:00;8.80;99.90
46730;DHT22;32476;50.002;11.854;2022-09-25T00:03:28;8.70;99.90
46730;DHT22;32476;50.002;11.854;2022-09-25T00:06:04;8.70;99.90
46730;DHT22;32476;50.002;11.854;2022-09-25T00:08:42;8.70;99.90
46730;DHT22;32476;50.002;11.854;2022-09-25T00:11:12;8.70;99.90
46730;DHT22;32476;50.002;11.854;2022-09-25T00:13:40;8.60;99.90
46730;DHT22;32476;50.002;11.854;2022-09-25T00:16:11;8.70;99.90
46730;DHT22;32476;50.002;11.854;2022-09-25T00:18:39;8.60;99.90
46730;DHT22;32476;50.002;11.854;2022-09-25T00:21:26;8.60;99.90
46730;DHT22;32476;50.002;11.854;2022-09-25T00:23:57;8.50;99.90
46730;DHT22;32476;50.002;11.854;2022-09-25T00:26:28;8.50;99.90
46730;DHT22;32476;50.002;11.854;2022-09-25T00:28:55;8.40;99.90
46730;DHT22;32476;50.002;11.854;2022-09-25T00:31:22;8.30;99.90
46730;DHT22;32476;50.002;11.854;2022-09-25T00:33:51;8.30;99.90
46730;DHT22;32476;50.002;11.854;2022-09-25T00:36:18;8.30;99.90
46730;DHT22;32476;50.002;11.854;2022-09-25T00:38:44;8.30;99.90
46730;DHT22;32476;50.002;11.854;2022-09-25T00:41:16;8.30;99.90
46730;DHT22;32476;50.002;11.854;2022-09-25T00:43:48;8.30;99.90
46730;DHT22;32476;50.002;11.854;2022-09-25T00:46:21;8.30;99.90
46730;DHT22;32476;50.002;11.854;2022-09-25T00:51:46;8.20;99.90
46730;DHT22;32476;50.002;11.854;2022-09-25T00:54:30;8.20;99.90
46730;DHT22;32476;50.002;11.854;2022-09-25T00:57:06;8.10;99.90
46730;DHT22;32476;50.002;11.854;2022-09-25T00:59:40;8.10;99.90
46730;DHT22;32476;50.002;11.854;2022-09-25T01:02:13;8.00;99.90
46730;DHT22;32476;50.002;11.854;2022-09-25T01:04:43;7.90;99.90
46730;DHT22;32476;50.002;11.854;2022-09-25T01:07:12;7.90;99.90
46730;DHT22;32476;50.002;11.854;2022-09-25T01:09:39;7.90;99.90
46730;DHT22;32476;50.002;11.854;2022-09-25T01:12:06;7.90;99.90
46730;DHT22;32476;50.002;11.854;2022-09-25T01:14:36;7.80;99.90
46730;DHT22;32476;50.002;11.854;2022-09-25T01:17:07;7.80;99.90
46730;DHT22;32476;50.002;11.854;2022-09-25T01:19:59;7.90;99.90
46730;DHT22;32476;50.002;11.854;2022-09-25T01:31:24;8.20;99.90
46730;DHT22;32476;50.002;11.854;2022-09-25T01:33:59;8.20;99.90
46730;DHT22;32476;50.002;11.854;2022-09-25T01:36:35;8.10;99.90
46730;DHT22;32476;50.002;11.854;2022-09-25T01:39:13;8.10;99.90
46730;DHT22;32476;50.002;11.854;2022-09-25T01:41:59;8.20;99.90
46730;DHT22;32476;50.002;11.854;2022-09-25T01:44:37;8.20;99.90
46730;DHT22;32476;50.002;11.854;2022-09-25T01:47:12;8.20;99.90
46730;DHT22;32476;50.002;11.854;2022-09-25T01:50:11;8.20;99.90
46730;DHT22;32476;50.002;11.854;2022-09-25T01:52:47;8.30;99.90
46730;DHT22;32476;50.002;11.854;2022-09-25T01:55:22;8.30;99.90
46730;DHT22;32476;50.002;11.854;2022-09-25T01:58:33;8.30;99.90
46730;DHT22;32476;50.002;11.854;2022-09-25T02:01:09;8.10;99.90
46730;DHT22;32476;50.002;11.854;2022-09-25T02:03:44;8.10;99.90
46730;DHT22;32476;50.002;11.854;2022-09-25T02:06:16;8.10;99.90
46730;DHT22;32476;50.002;11.854;2022-09-25T02:08:52;8.20;99.90
46730;DHT22;32476;50.002;11.854;2022-09-25T02:11:24;8.20;99.90
46730;DHT22;32476;50.002;11.854;2022-09-25T02:14:01;8.30;99.90
46730;DHT22;32476;50.002;11.854;2022-09-25T02:16:34;8.40;99.90
46730;DHT22;32476;50.002;11.854;2022-09-25T02:19:04;8.50;99.90
46730;DHT22;32476;50.002;11.854;2022-09-25T02:27:14;8.50;99.90
46730;DHT22;32476;50.002;11.854;2022-09-25T02:29:41;8.50;99.90
46730;DHT22;32476;50.002;11.854;2022-09-25T02:32:10;8.50;99.90
46730;DHT22;32476;50.002;11.854;2022-09-25T02:34:37;8.50;99.90
46730;DHT22;32476;50.002;11.854;2022-09-25T02:37:10;8.50;99.90
46730;DHT22;32476;50.002;11.854;2022-09-25T02:39:41;8.50;99.90
46730;DHT22;32476;50.002;11.854;2022-09-25T02:42:29;8.60;99.90
46730;DHT22;32476;50.002;11.854;2022-09-25T02:45:09;8.60;99.90
46730;DHT22;32476;50.002;11.854;2022-09-25T02:48:12;8.60;99.90
46730;DHT22;32476;50.002;11.854;2022-09-25T02:51:05;8.70;99.90
46730;DHT22;32476;50.002;11.854;2022-09-25T02:53:44;8.70;99.90
46730;DHT22;32476;50.002;11.854;2022-09-25T02:56:19;8.60;99.90
46730;DHT22;32476;50.002;11.854;2022-09-25T02:59:03;8.40;99.90
46730;DHT22;32476;50.002;11.854;2022-09-25T03:01:33;8.30;99.90
46730;DHT22;32476;50.002;11.854;2022-09-25T03:04:04;8.30;99.90
46730;DHT22;32476;50.002;11.854;2022-09-25T03:06:31;8.30;99.90
46730;DHT22;32476;50.002;11.854;2022-09-25T03:08:58;8.30;99.90
46730;DHT22;32476;50.002;11.854;2022-09-25T03:11:27;8.20;99.90
46730;DHT22;32476;50.002;11.854;2022-09-25T03:14:01;8.10;99.90
46730;DHT22;32476;50.002;11.854;2022-09-25T03:16:37;8.10;99.90
46730;DHT22;32476;50.002;11.854;2022-09-25T03:19:26;8.10;99.90
46730;DHT22;32476;50.002;11.854;2022-09-25T03:21:54;8.10;99.90
46730;DHT22;32476;50.002;11.854;2022-09-25T03:24:20;8.20;99.90
46730;DHT22;32476;50.002;11.854;2022-09-25T03:26:47;8.20;99.90
46730;DHT22;32476;50.002;11.854;2022-09-25T03:29:15;8.30;99.90
46730;DHT22;32476;50.002;11.854;2022-09-25T03:31:42;8.30;99.90
46730;DHT22;32476;50.002;11.854;2022-09-25T03:34:12;8.40;99.90
46730;DHT22;32476;50.002;11.854;2022-09-25T03:36:41;8.40;99.90
46730;DHT22;32476;50.002;11.854;2022-09-25T03:39:08;8.40;99.90
46730;DHT22;32476;50.002;11.854;2022-09-25T03:41:41;8.50;99.90
46730;DHT22;32476;50.002;11.854;2022-09-25T03:44:08;8.50;99.90
46730;DHT22;32476;50.002;11.854;2022-09-25T03:46:34;8.50;99.90
46730;DHT22;32476;50.002;11.854;2022-09-25T03:49:02;8.60;99.90
46730;DHT22;32476;50.002;11.854;2022-09-25T03:51:30;8.60;99.90
46730;DHT22;32476;50.002;11.854;2022-09-25T03:53:56;8.60;99.90
46730;DHT22;32476;50.002;11.854;2022-09-25T03:56:26;8.60;99.90
46730;DHT22;32476;50.002;11.854;2022-09-25T03:58:54;8.70;99.90
46730;DHT22;32476;50.002;11.854;2022-09-25T04:01:21;8.70;99.90
46730;DHT22;32476;50.002;11.854;2022-09-25T04:03:49;8.70;99.90
46730;DHT22;32476;50.002;11.854;2022-09-25T04:06:21;8.70;99.90
46730;DHT22;32476;50.002;11.854;2022-09-25T04:08:51;8.70;99.90
46730;DHT22;32476;50.002;11.854;2022-09-25T04:11:19;8.70;99.90
46730;DHT22;32476;50.002;11.854;2022-09-25T04:13:47;8.70;99.90
46730;DHT22;32476;50.002;11.854;2022-09-25T04:16:15;8.70;99.90
46730;DHT22;32476;50.002;11.854;2022-09-25T04:18:42;8.70;99.90
46730;DHT22;32476;50.002;11.854;2022-09-25T04:21:10;8.80;99.90
46730;DHT22;32476;50.002;11.854;2022-09-25T04:23:39;8.70;99.90
46730;DHT22;32476;50.002;11.854;2022-09-25T04:26:06;8.70;99.90
46730;DHT22;32476;50.002;11.854;2022-09-25T04:28:34;8.70;99.90
46730;DHT22;32476;50.002;11.854;2022-09-25T04:31:01;8.70;99.90
46730;DHT22;32476;50.002;11.854;2022-09-25T04:33:28;8.70;99.90
46730;DHT22;32476;50.002;11.854;2022-09-25T04:36:17;8.70;99.90
46730;DHT22;32476;50.002;11.854;2022-09-25T04:38:46;8.70;99.90
46730;DHT22;32476;50.002;11.854;2022-09-25T04:41:15;8.80;99.90
46730;DHT22;32476;50.002;11.854;2022-09-25T04:43:44;8.80;99.90
46730;DHT22;32476;50.002;11.854;2022-09-25T04:46:11;8.80;99.90
46730;DHT22;32476;50.002;11.854;2022-09-25T04:48:43;8.80;99.90
46730;DHT22;32476;50.002;11.854;2022-09-25T04:51:10;8.80;99.90
46730;DHT22;32476;50.002;11.854;2022-09-25T04:53:36;8.70;99.90
46730;DHT22;32476;50.002;11.854;2022-09-25T04:56:06;8.70;99.90
46730;DHT22;32476;50.002;11.854;2022-09-25T04:58:33;8.80;99.90
46730;DHT22;32476;50.002;11.854;2022-09-25T05:01:07;8.80;99.90
46730;DHT22;32476;50.002;11.854;2022-09-25T05:03:36;8.70;99.90
46730;DHT22;32476;50.002;11.854;2022-09-25T05:06:02;8.70;99.90
46730;DHT22;32476;50.002;11.854;2022-09-25T05:08:28;8.70;99.90
46730;DHT22;32476;50.002;11.854;2022-09-25T05:10:55;8.70;99.90
46730;DHT22;32476;50.002;11.854;2022-09-25T05:13:21;8.70;99.90
46730;DHT22;32476;50.002;11.854;2022-09-25T05:15:47;8.60;99.90
46730;DHT22;32476;50.002;11.854;2022-09-25T05:18:17;8.60;99.90
46730;DHT22;32476;50.002;11.854;2022-09-25T05:20:44;8.70;99.90
46730;DHT22;32476;50.002;11.854;2022-09-25T05:23:11;8.60;99.90
46730;DHT22;32476;50.002;11.854;2022-09-25T05:25:38;8.60;99.90
46730;DHT22;32476;50.002;11.854;2022-09-25T05:28:05;8.70;99.90
46730;DHT22;32476;50.002;11.854;2022-09-25T05:30:32;8.60;99.90
46730;DHT22;32476;50.002;11.854;2022-09-25T05:33:00;8.70;99.90
46730;DHT22;32476;50.002;11.854;2022-09-25T05:35:28;8.70;99.90
46730;DHT22;32476;50.002;11.854;2022-09-25T05:37:55;8.80;99.90
46730;DHT22;32476;50.002;11.854;2022-09-25T05:40:23;8.80;99.90
46730;DHT22;32476;50.002;11.854;2022-09-25T05:42:50;8.90;99.90
46730;DHT22;32476;50.002;11.854;2022-09-25T05:45:18;8.90;99.90
46730;DHT22;32476;50.002;11.854;2022-09-25T05:47:46;8.90;99.90
46730;DHT22;32476;50.002;11.854;2022-09-25T05:50:14;9.00;99.90
46730;DHT22;32476;50.002;11.854;2022-09-25T05:52:40;9.00;99.90
46730;DHT22;32476;50.002;11.854;2022-09-25T05:55:08;9.00;99.90
46730;DHT22;32476;50.002;11.854;2022-09-25T05:57:36;9.10;99.90
46730;DHT22;32476;50.002;11.854;2022-09-25T06:00:07;9.10;99.90
46730;DHT22;32476;50.002;11.854;2022-09-25T06:02:38;9.20;99.90
46730;DHT22;32476;50.002;11.854;2022-09-25T06:05:04;9.20;99.90
46730;DHT22;32476;50.002;11.854;2022-09-25T06:07:30;9.30;99.90
46730;DHT22;32476;50.002;11.854;2022-09-25T06:09:57;9.40;99.90
46730;DHT22;32476;50.002;11.854;2022-09-25T06:12:23;9.40;99.90
46730;DHT22;32476;50.002;11.854;2022-09-25T06:14:50;9.50;99.90
46730;DHT22;32476;50.002;11.854;2022-09-25T06:17:19;9.50;99.90
46730;DHT22;32476;50.002;11.854;2022-09-25T06:19:45;9.60;99.90
46730;DHT22;32476;50.002;11.854;2022-09-25T06:22:11;9.60;99.90
46730;DHT22;32476;50.002;11.854;2022-09-25T06:24:40;9.70;99.90
46730;DHT22;32476;50.002;11.854;2022-09-25T06:27:06;9.70;99.90
46730;DHT22;32476;50.002;11.854;2022-09-25T06:29:33;9.70;99.90
46730;DHT22;32476;50.002;11.854;2022-09-25T06:32:01;9.80;99.90
46730;DHT22;32476;50.002;11.854;2022-09-25T06:34:27;9.80;99.90
46730;DHT22;32476;50.002;11.854;2022-09-25T06:36:54;9.80;99.90
46730;DHT22;32476;50.002;11.854;2022-09-25T06:39:22;9.90;99.90
46730;DHT22;32476;50.002;11.854;2022-09-25T06:41:51;9.90;99.90
46730;DHT22;32476;50.002;11.854;2022-09-25T06:44:19;10.00;99.90
46730;DHT22;32476;50.002;11.854;2022-09-25T06:46:49;10.10;99.90
46730;DHT22;32476;50.002;11.854;2022-09-25T06:49:16;10.10;99.90
46730;DHT22;32476;50.002;11.854;2022-09-25T06:51:42;10.20;99.90
46730;DHT22;32476;50.002;11.854;2022-09-25T06:54:10;10.20;99.90
46730;DHT22;32476;50.002;11.854;2022-09-25T06:56:36;10.30;99.90
46730;DHT22;32476;50.002;11.854;2022-09-25T06:59:02;10.20;99.90
46730;DHT22;32476;50.002;11.854;2022-09-25T07:01:30;10.20;99.90
46730;DHT22;32476;50.002;11.854;2022-09-25T07:03:56;10.20;99.90
46730;DHT22;32476;50.002;11.854;2022-09-25T07:06:24;10.20;99.90
46730;DHT22;32476;50.002;11.854;2022-09-25T07:08:57;10.20;99.90
46730;DHT22;32476;50.002;11.854;2022-09-25T07:11:25;10.20;99.90
46730;DHT22;32476;50.002;11.854;2022-09-25T07:13:53;10.30;99.90
46730;DHT22;32476;50.002;11.854;2022-09-25T07:16:23;10.30;99.90
46730;DHT22;32476;50.002;11.854;2022-09-25T07:18:53;10.40;99.90
46730;DHT22;32476;50.002;11.854;2022-09-25T07:21:22;10.40;99.90
46730;DHT22;32476;50.002;11.854;2022-09-25T07:23:50;10.50;99.90
46730;DHT22;32476;50.002;11.854;2022-09-25T07:26:20;10.50;99.90
46730;DHT22;32476;50.002;11.854;2022-09-25T07:29:00;10.50;99.90
46730;DHT22;32476;50.002;11.854;2022-09-25T07:31:29;10.50;99.90
46730;DHT22;32476;50.002;11.854;2022-09-25T07:34:00;10.50;99.90
46730;DHT22;32476;50.002;11.854;2022-09-25T07:36:30;10.60;99.90
46730;DHT22;32476;50.002;11.854;2022-09-25T07:38:58;10.60;99.90
46730;DHT22;32476;50.002;11.854;2022-09-25T07:41:24;10.60;99.90
46730;DHT22;32476;50.002;11.854;2022-09-25T07:43:54;10.60;99.90
46730;DHT22;32476;50.002;11.854;2022-09-25T07:46:24;10.60;99.90
46730;DHT22;32476;50.002;11.854;2022-09-25T07:48:51;10.60;99.90
46730;DHT22;32476;50.002;11.854;2022-09-25T07:51:17;10.70;99.90
46730;DHT22;32476;50.002;11.854;2022-09-25T07:53:47;10.70;99.90
46730;DHT22;32476;50.002;11.854;2022-09-25T07:56:13;10.70;99.90
46730;DHT22;32476;50.002;11.854;2022-09-25T07:58:40;10.70;99.90
46730;DHT22;32476;50.002;11.854;2022-09-25T08:01:10;10.90;99.90
46730;DHT22;32476;50.002;11.854;2022-09-25T08:03:38;10.90;99.90
46730;DHT22;32476;50.002;11.854;2022-09-25T08:06:09;11.20;99.90
46730;DHT22;32476;50.002;11.854;2022-09-25T08:08:40;11.30;99.90
46730;DHT22;32476;50.002;11.854;2022-09-25T08:11:11;11.50;99.90
46730;DHT22;32476;50.002;11.854;2022-09-25T08:13:40;11.60;99.90
46730;DHT22;32476;50.002;11.854;2022-09-25T08:16:12;11.70;99.90
46730;DHT22;32476;50.002;11.854;2022-09-25T08:18:45;11.70;99.90
46730;DHT22;32476;50.002;11.854;2022-09-25T08:21:14;11.90;99.90
46730;DHT22;32476;50.002;11.854;2022-09-25T08:23:42;12.00;99.90
46730;DHT22;32476;50.002;11.854;2022-09-25T08:26:10;12.10;99.90
46730;DHT22;32476;50.002;11.854;2022-09-25T08:28:36;12.30;99.90
46730;DHT22;32476;50.002;11.854;2022-09-25T08:31:02;12.20;99.90
46730;DHT22;32476;50.002;11.854;2022-09-25T08:33:30;12.20;99.90
46730;DHT22;32476;50.002;11.854;2022-09-25T08:36:03;12.20;99.90
46730;DHT22;32476;50.002;11.854;2022-09-25T08:38:31;12.20;99.90
46730;DHT22;32476;50.002;11.854;2022-09-25T08:41:01;12.30;99.90
46730;DHT22;32476;50.002;11.854;2022-09-25T08:47:17;12.70;99.90
46730;DHT22;32476;50.002;11.854;2022-09-25T08:50:11;12.80;99.90
46730;DHT22;32476;50.002;11.854;2022-09-25T08:52:43;12.70;99.90
46730;DHT22;32476;50.002;11.854;2022-09-25T08:55:23;12.90;99.90
46730;DHT22;32476;50.002;11.854;2022-09-25T08:58:12;13.10;99.90
46730;DHT22;32476;50.002;11.854;2022-09-25T09:00:46;13.20;99.90
46730;DHT22;32476;50.002;11.854;2022-09-25T09:03:13;13.10;99.90
46730;DHT22;32476;50.002;11.854;2022-09-25T09:05:40;13.10;99.90
46730;DHT22;32476;50.002;11.854;2022-09-25T09:08:13;13.30;99.90
46730;DHT22;32476;50.002;11.854;2022-09-25T09:13:57;13.90;99.90
46730;DHT22;32476;50.002;11.854;2022-09-25T09:16:26;14.10;99.90
46730;DHT22;32476;50.002;11.854;2022-09-25T09:19:00;14.00;99.90
46730;DHT22;32476;50.002;11.854;2022-09-25T09:24:17;14.60;99.90
46730;DHT22;32476;50.002;11.854;2022-09-25T09:36:01;14.50;99.90
46730;DHT22;32476;50.002;11.854;2022-09-25T09:42:04;14.70;99.90
46730;DHT22;32476;50.002;11.854;2022-09-25T09:50:51;14.50;99.90
46730;DHT22;32476;50.002;11.854;2022-09-25T09:53:45;14.60;99.90
46730;DHT22;32476;50.002;11.854;2022-09-25T09:56:21;14.70;99.90
46730;DHT22;32476;50.002;11.854;2022-09-25T09:58:55;14.80;99.90
46730;DHT22;32476;50.002;11.854;2022-09-25T10:01:27;14.80;99.90
46730;DHT22;32476;50.002;11.854;2022-09-25T10:04:17;15.00;99.90
46730;DHT22;32476;50.002;11.854;2022-09-25T10:06:50;15.10;99.90
46730;DHT22;32476;50.002;11.854;2022-09-25T10:09:21;15.50;99.90
46730;DHT22;32476;50.002;11.854;2022-09-25T10:11:56;16.10;99.90
46730;DHT22;32476;50.002;11.854;2022-09-25T10:14:36;16.80;99.90
46730;DHT22;32476;50.002;11.854;2022-09-25T10:17:05;17.00;99.90
46730;DHT22;32476;50.002;11.854;2022-09-25T10:20:00;17.10;99.90
46730;DHT22;32476;50.002;11.854;2022-09-25T10:22:36;16.70;99.90
46730;DHT22;32476;50.002;11.854;2022-09-25T10:25:07;16.70;99.90
46730;DHT22;32476;50.002;11.854;2022-09-25T10:27:41;16.80;99.90
46730;DHT22;32476;50.002;11.854;2022-09-25T10:30:18;16.90;99.90
46730;DHT22;32476;50.002;11.854;2022-09-25T10:35:18;17.30;99.90
46730;DHT22;32476;50.002;11.854;2022-09-25T10:37:49;17.70;99.90
46730;DHT22;32476;50.002;11.854;2022-09-25T10:40:28;17.90;99.90
46730;DHT22;32476;50.002;11.854;2022-09-25T10:43:24;17.70;99.90
46730;DHT22;32476;50.002;11.854;2022-09-25T10:46:13;18.30;99.90
46730;DHT22;32476;50.002;11.854;2022-09-25T10:48:40;18.70;99.90
46730;DHT22;32476;50.002;11.854;2022-09-25T10:51:27;19.30;99.90
46730;DHT22;32476;50.002;11.854;2022-09-25T10:56:35;19.90;99.90
46730;DHT22;32476;50.002;11.854;2022-09-25T10:59:12;19.80;99.90
46730;DHT22;32476;50.002;11.854;2022-09-25T11:01:48;20.20;99.90
46730;DHT22;32476;50.002;11.854;2022-09-25T11:04:22;19.60;99.90
46730;DHT22;32476;50.002;11.854;2022-09-25T11:06:57;19.60;99.90
46730;DHT22;32476;50.002;11.854;2022-09-25T11:09:29;19.60;99.90
46730;DHT22;32476;50.002;11.854;2022-09-25T11:12:21;19.90;99.90
46730;DHT22;32476;50.002;11.854;2022-09-25T11:14:55;19.60;99.90
46730;DHT22;32476;50.002;11.854;2022-09-25T11:17:39;19.30;99.90
46730;DHT22;32476;50.002;11.854;2022-09-25T11:20:27;19.10;99.90
46730;DHT22;32476;50.002;11.854;2022-09-25T11:23:12;19.20;99.90
46730;DHT22;32476;50.002;11.854;2022-09-25T11:31:14;17.70;99.90
46730;DHT22;32476;50.002;11.854;2022-09-25T11:34:10;17.20;99.90
46730;DHT22;32476;50.002;11.854;2022-09-25T11:37:01;17.60;99.90
46730;DHT22;32476;50.002;11.854;2022-09-25T11:39:44;18.00;99.90
46730;DHT22;32476;50.002;11.854;2022-09-25T11:42:52;17.80;99.90
46730;DHT22;32476;50.002;11.854;2022-09-25T11:45:35;18.40;99.90
46730;DHT22;32476;50.002;11.854;2022-09-25T11:51:42;19.60;99.90
46730;DHT22;32476;50.002;11.854;2022-09-25T12:00:07;19.90;99.90
46730;DHT22;32476;50.002;11.854;2022-09-25T12:14:42;19.60;99.90
46730;DHT22;32476;50.002;11.854;2022-09-25T12:20:21;19.00;99.90
46730;DHT22;32476;50.002;11.854;2022-09-25T12:23:09;19.00;99.90
46730;DHT22;32476;50.002;11.854;2022-09-25T12:26:06;19.70;99.90
46730;DHT22;32476;50.002;11.854;2022-09-25T12:35:31;19.90;99.80
46730;DHT22;32476;50.002;11.854;2022-09-25T12:38:06;19.40;98.10
46730;DHT22;32476;50.002;11.854;2022-09-25T12:41:13;19.00;98.50
46730;DHT22;32476;50.002;11.854;2022-09-25T12:43:56;18.90;99.90
46730;DHT22;32476;50.002;11.854;2022-09-25T12:46:38;19.00;99.90
46730;DHT22;32476;50.002;11.854;2022-09-25T12:49:29;18.90;99.90
46730;DHT22;32476;50.002;11.854;2022-09-25T12:52:27;19.50;99.90
46730;DHT22;32476;50.002;11.854;2022-09-25T12:58:15;19.10;99.90
46730;DHT22;32476;50.002;11.854;2022-09-25T13:00:58;18.90;99.90
46730;DHT22;32476;50.002;11.854;2022-09-25T13:07:07;18.00;99.90
46730;DHT22;32476;50.002;11.854;2022-09-25T13:09:54;17.60;99.90
46730;DHT22;32476;50.002;11.854;2022-09-25T13:12:35;17.10;99.90
46730;DHT22;32476;50.002;11.854;2022-09-25T13:15:16;16.50;99.90
46730;DHT22;32476;50.002;11.854;2022-09-25T13:17:45;16.20;99.90
46730;DHT22;32476;50.002;11.854;2022-09-25T13:23:46;16.20;99.90
46730;DHT22;32476;50.002;11.854;2022-09-25T13:25:51;16.00;99.90
46730;DHT22;32476;50.002;11.854;2022-09-25T13:28:35;15.90;99.90
46730;DHT22;32476;50.002;11.854;2022-09-25T13:31:10;15.60;99.90
46730;DHT22;32476;50.002;11.854;2022-09-25T13:38:59;15.50;99.90
46730;DHT22;32476;50.002;11.854;2022-09-25T13:41:57;15.40;99.90
46730;DHT22;32476;50.002;11.854;2022-09-25T14:00:26;11.70;99.90
46730;DHT22;32476;50.002;11.854;2022-09-25T14:03:02;11.40;99.90
46730;DHT22;32476;50.002;11.854;2022-09-25T14:05:32;11.20;99.90
46730;DHT22;32476;50.002;11.854;2022-09-25T14:08:08;11.10;99.90
46730;DHT22;32476;50.002;11.854;2022-09-25T14:10:50;11.00;99.90
46730;DHT22;32476;50.002;11.854;2022-09-25T14:13:20;11.20;99.90
46730;DHT22;32476;50.002;11.854;2022-09-25T14:15:55;11.10;99.90
46730;DHT22;32476;50.002;11.854;2022-09-25T14:21:05;10.80;99.90
46730;DHT22;32476;50.002;11.854;2022-09-25T14:23:32;10.70;99.90
46730;DHT22;32476;50.002;11.854;2022-09-25T14:26:00;10.40;99.90
46730;DHT22;32476;50.002;11.854;2022-09-25T14:28:31;10.40;99.90
46730;DHT22;32476;50.002;11.854;2022-09-25T14:34:16;10.30;99.90
46730;DHT22;32476;50.002;11.854;2022-09-25T14:37:29;10.40;99.90
46730;DHT22;32476;50.002;11.854;2022-09-25T14:40:29;10.40;99.90
46730;DHT22;32476;50.002;11.854;2022-09-25T14:48:40;10.40;99.90
46730;DHT22;32476;50.002;11.854;2022-09-25T14:51:12;10.50;99.90
46730;DHT22;32476;50.002;11.854;2022-09-25T14:53:44;10.50;99.90
46730;DHT22;32476;50.002;11.854;2022-09-25T14:56:16;10.50;99.90
46730;DHT22;32476;50.002;11.854;2022-09-25T14:58:50;10.50;99.90
46730;DHT22;32476;50.002;11.854;2022-09-25T15:01:27;10.70;99.90
46730;DHT22;32476;50.002;11.854;2022-09-25T15:04:03;10.80;99.90
46730;DHT22;32476;50.002;11.854;2022-09-25T15:06:34;10.70;99.90
46730;DHT22;32476;50.002;11.854;2022-09-25T15:09:02;10.70;99.90
46730;DHT22;32476;50.002;11.854;2022-09-25T15:11:53;10.80;99.90
46730;DHT22;32476;50.002;11.854;2022-09-25T15:14:20;10.90;99.90
46730;DHT22;32476;50.002;11.854;2022-09-25T15:16:47;11.00;99.90
46730;DHT22;32476;50.002;11.854;2022-09-25T15:19:36;11.00;99.90
46730;DHT22;32476;50.002;11.854;2022-09-25T15:22:11;11.10;99.90
46730;DHT22;32476;50.002;11.854;2022-09-25T15:24:52;11.10;99.90
46730;DHT22;32476;50.002;11.854;2022-09-25T15:27:23;11.20;99.90
46730;DHT22;32476;50.002;11.854;2022-09-25T15:29:50;11.20;99.90
46730;DHT22;32476;50.002;11.854;2022-09-25T15:32:21;11.30;99.90
46730;DHT22;32476;50.002;11.854;2022-09-25T15:37:40;11.40;99.90
46730;DHT22;32476;50.002;11.854;2022-09-25T15:42:50;11.30;99.90
46730;DHT22;32476;50.002;11.854;2022-09-25T15:45:45;11.40;99.90
46730;DHT22;32476;50.002;11.854;2022-09-25T15:48:36;11.40;99.90
46730;DHT22;32476;50.002;11.854;2022-09-25T15:51:22;11.30;99.90
46730;DHT22;32476;50.002;11.854;2022-09-25T15:54:23;11.30;99.90
46730;DHT22;32476;50.002;11.854;2022-09-25T15:57:11;11.20;99.90
46730;DHT22;32476;50.002;11.854;2022-09-25T15:59:45;11.20;99.90
46730;DHT22;32476;50.002;11.854;2022-09-25T16:02:36;11.20;99.90
46730;DHT22;32476;50.002;11.854;2022-09-25T16:05:34;11.10;99.90
46730;DHT22;32476;50.002;11.854;2022-09-25T16:10:48;10.90;99.90
46730;DHT22;32476;50.002;11.854;2022-09-25T16:13:21;10.80;99.90
46730;DHT22;32476;50.002;11.854;2022-09-25T16:15:51;10.90;99.90
46730;DHT22;32476;50.002;11.854;2022-09-25T16:20:56;11.10;99.90
46730;DHT22;32476;50.002;11.854;2022-09-25T16:23:41;11.10;99.90
46730;DHT22;32476;50.002;11.854;2022-09-25T16:26:19;11.00;99.90
46730;DHT22;32476;50.002;11.854;2022-09-25T16:31:37;10.90;99.90
46730;DHT22;32476;50.002;11.854;2022-09-25T16:34:29;10.80;99.90
46730;DHT22;32476;50.002;11.854;2022-09-25T16:36:59;10.70;99.90
46730;DHT22;32476;50.002;11.854;2022-09-25T16:39:35;10.70;99.90
46730;DHT22;32476;50.002;11.854;2022-09-25T16:44:48;10.60;99.90
46730;DHT22;32476;50.002;11.854;2022-09-25T16:47:20;10.50;99.90
46730;DHT22;32476;50.002;11.854;2022-09-25T16:49:47;10.40;99.90
46730;DHT22;32476;50.002;11.854;2022-09-25T16:52:26;10.40;99.90
46730;DHT22;32476;50.002;11.854;2022-09-25T16:54:56;10.30;99.90
46730;DHT22;32476;50.002;11.854;2022-09-25T16:57:25;10.10;99.90
46730;DHT22;32476;50.002;11.854;2022-09-25T16:59:52;10.10;99.90
46730;DHT22;32476;50.002;11.854;2022-09-25T17:02:27;10.10;99.90
46730;DHT22;32476;50.002;11.854;2022-09-25T17:05:14;10.00;99.90
46730;DHT22;32476;50.002;11.854;2022-09-25T17:07:49;10.00;99.90
46730;DHT22;32476;50.002;11.854;2022-09-25T17:10:18;10.00;99.90
46730;DHT22;32476;50.002;11.854;2022-09-25T17:12:48;10.00;99.90
46730;DHT22;32476;50.002;11.854;2022-09-25T17:15:28;10.00;99.90
46730;DHT22;32476;50.002;11.854;2022-09-25T17:17:59;9.90;99.90
46730;DHT22;32476;50.002;11.854;2022-09-25T17:20:28;9.90;99.90
46730;DHT22;32476;50.002;11.854;2022-09-25T17:22:56;9.80;99.90
46730;DHT22;32476;50.002;11.854;2022-09-25T17:25:48;9.80;99.90
46730;DHT22;32476;50.002;11.854;2022-09-25T17:28:16;9.80;99.90
46730;DHT22;32476;50.002;11.854;2022-09-25T17:30:44;9.80;99.90
46730;DHT22;32476;50.002;11.854;2022-09-25T17:33:18;9.80;99.90
46730;DHT22;32476;50.002;11.854;2022-09-25T17:35:53;9.70;99.90
46730;DHT22;32476;50.002;11.854;2022-09-25T17:38:24;9.70;99.90
46730;DHT22;32476;50.002;11.854;2022-09-25T17:40:54;9.70;99.90
46730;DHT22;32476;50.002;11.854;2022-09-25T17:43:21;9.70;99.90
46730;DHT22;32476;50.002;11.854;2022-09-25T17:45:54;9.60;99.90
46730;DHT22;32476;50.002;11.854;2022-09-25T17:48:28;9.60;99.90
46730;DHT22;32476;50.002;11.854;2022-09-25T17:51:15;9.60;99.90
46730;DHT22;32476;50.002;11.854;2022-09-25T17:53:44;9.60;99.90
46730;DHT22;32476;50.002;11.854;2022-09-25T17:56:11;9.50;99.90
46730;DHT22;32476;50.002;11.854;2022-09-25T17:58:38;9.50;99.90
46730;DHT22;32476;50.002;11.854;2022-09-25T18:01:13;9.50;99.90
46730;DHT22;32476;50.002;11.854;2022-09-25T18:03:54;9.50;99.90
46730;DHT22;32476;50.002;11.854;2022-09-25T18:06:29;9.50;99.90
46730;DHT22;32476;50.002;11.854;2022-09-25T18:08:55;9.50;99.90
46730;DHT22;32476;50.002;11.854;2022-09-25T18:11:24;9.40;99.90
46730;DHT22;32476;50.002;11.854;2022-09-25T18:13:53;9.40;99.90
46730;DHT22;32476;50.002;11.854;2022-09-25T18:16:27;9.40;99.90
46730;DHT22;32476;50.002;11.854;2022-09-25T18:18:58;9.40;99.90
46730;DHT22;32476;50.002;11.854;2022-09-25T18:21:43;9.40;99.90
46730;DHT22;32476;50.002;11.854;2022-09-25T18:24:29;9.30;99.90
46730;DHT22;32476;50.002;11.854;2022-09-25T18:26:55;9.40;99.90
46730;DHT22;32476;50.002;11.854;2022-09-25T18:29:22;9.40;99.90